Time;durP1;ratioP1;P1;durP2;ratioP2;P2;SDS_P1;SDS_P2;PMS_P1;PMS_P2;Temp;Humidity;BMP_temperature;BMP_pressure;BME280_temperature;BME280_humidity;BME280_pressure;Samples;Min_cycle;Max_cycle;Signal;HPM_P1;HPM_P2
2021/08/25 00:00:43;;;;;;;4.00;2.60;;;24.50;68.60;;;;;;5081242;28;20198;-75
2021/08/25 00:03:10;;;;;;;4.15;2.45;;;24.50;68.40;;;;;;5073848;28;20684;-75
2021/08/25 00:05:36;;;;;;;4.70;2.67;;;24.50;67.90;;;;;;5060579;28;20224;-76
2021/08/25 00:08:03;;;;;;;4.03;2.65;;;24.50;68.30;;;;;;5082329;28;20186;-76
2021/08/25 00:10:29;;;;;;;4.90;2.75;;;24.50;68.10;;;;;;5079341;28;20520;-75
2021/08/25 00:12:56;;;;;;;4.10;2.50;;;24.50;68.20;;;;;;5071373;28;20199;-76
2021/08/25 00:15:24;;;;;;;10.30;2.83;;;24.30;68.40;;;;;;5079552;28;20240;-76
2021/08/25 00:17:54;;;;;;;4.88;2.30;;;24.30;68.40;;;;;;5066745;28;20538;-75
2021/08/25 00:20:21;;;;;;;3.13;2.50;;;24.20;68.30;;;;;;5074435;28;20186;-75
2021/08/25 00:22:48;;;;;;;3.92;2.50;;;24.20;68.70;;;;;;5084243;28;20193;-75
2021/08/25 00:25:15;;;;;;;3.03;2.30;;;24.10;68.00;;;;;;5078811;28;20308;-76
2021/08/25 00:27:44;;;;;;;7.00;2.50;;;24.00;67.90;;;;;;5084025;28;20202;-76
2021/08/25 00:30:12;;;;;;;7.05;2.42;;;24.00;67.90;;;;;;5076825;28;20193;-75
2021/08/25 00:32:38;;;;;;;5.45;2.33;;;23.90;67.40;;;;;;5065973;28;20202;-76
2021/08/25 00:35:05;;;;;;;4.07;2.55;;;23.90;67.40;;;;;;5077202;28;20265;-75
2021/08/25 00:37:32;;;;;;;4.63;2.37;;;23.90;67.30;;;;;;5084305;28;20186;-76
2021/08/25 00:39:58;;;;;;;5.03;2.40;;;24.00;67.40;;;;;;5076975;28;20186;-76
2021/08/25 00:42:26;;;;;;;4.43;2.40;;;24.00;67.30;;;;;;5062798;28;20191;-76
2021/08/25 00:44:53;;;;;;;3.90;2.77;;;24.00;67.60;;;;;;5066175;28;20197;-76
2021/08/25 00:47:19;;;;;;;6.18;2.42;;;24.00;67.40;;;;;;5070743;28;20190;-76
2021/08/25 00:49:47;;;;;;;4.70;2.50;;;23.90;67.60;;;;;;5055285;28;20225;-76
2021/08/25 00:52:14;;;;;;;4.77;2.50;;;23.90;67.20;;;;;;5078029;28;20237;-76
2021/08/25 00:54:43;;;;;;;4.30;2.53;;;23.80;67.10;;;;;;5083163;28;20205;-76
2021/08/25 00:57:09;;;;;;;2.80;2.50;;;23.80;67.20;;;;;;5083025;28;20204;-76
2021/08/25 00:59:37;;;;;;;3.75;2.55;;;23.90;67.30;;;;;;5058773;28;20236;-76
2021/08/25 01:02:15;;;;;;;4.37;2.80;;;23.90;67.20;;;;;;5055393;28;20190;-75
2021/08/25 01:04:53;;;;;;;3.43;2.50;;;24.00;67.00;;;;;;5076107;28;20178;-76
2021/08/25 01:07:24;;;;;;;4.15;2.75;;;23.90;66.80;;;;;;5062606;28;20186;-74
2021/08/25 01:09:52;;;;;;;3.80;2.40;;;23.80;66.90;;;;;;5074259;28;20939;-76
2021/08/25 01:12:28;;;;;;;8.40;2.73;;;23.80;66.90;;;;;;5077997;28;20195;-76
2021/08/25 01:14:55;;;;;;;7.97;2.10;;;23.80;66.50;;;;;;5074329;28;20194;-76
2021/08/25 01:17:24;;;;;;;4.27;2.30;;;23.70;66.60;;;;;;5082898;28;20222;-74
2021/08/25 01:20:26;;;;;;;6.40;2.70;;;23.70;66.80;;;;;;5077388;28;20182;-76
2021/08/25 01:22:53;;;;;;;5.35;2.47;;;23.70;67.00;;;;;;5027342;28;20208;-76
2021/08/25 01:25:29;;;;;;;5.03;2.17;;;23.70;66.80;;;;;;5062709;28;20179;-77
2021/08/25 01:28:21;;;;;;;4.20;2.60;;;23.70;66.80;;;;;;5056135;28;20280;-76
2021/08/25 01:30:47;;;;;;;5.40;2.50;;;23.70;66.70;;;;;;5079326;28;20190;-75
2021/08/25 01:33:23;;;;;;;5.90;2.72;;;23.70;66.70;;;;;;5084586;28;20690;-76
2021/08/25 01:35:50;;;;;;;4.93;2.50;;;23.70;66.60;;;;;;5085153;28;20190;-76
2021/08/25 01:38:49;;;;;;;4.35;2.33;;;23.70;66.60;;;;;;5069651;28;20189;-75
2021/08/25 01:41:19;;;;;;;4.93;2.50;;;23.70;66.70;;;;;;5076752;28;20183;-76
2021/08/25 01:43:52;;;;;;;3.90;2.58;;;23.70;67.00;;;;;;5089374;28;20194;-75
2021/08/25 01:46:28;;;;;;;5.70;2.50;;;23.70;67.20;;;;;;5065375;28;20210;-75
2021/08/25 01:48:56;;;;;;;5.27;2.30;;;23.80;67.00;;;;;;5076938;28;20217;-74
2021/08/25 01:51:29;;;;;;;4.93;2.50;;;23.80;66.80;;;;;;5083514;28;20316;-76
2021/08/25 01:53:57;;;;;;;3.13;2.27;;;23.80;67.00;;;;;;5087325;28;20179;-76
2021/08/25 01:56:23;;;;;;;2.53;2.13;;;23.70;66.90;;;;;;5070787;28;20183;-76
2021/08/25 01:58:57;;;;;;;3.00;2.33;;;23.70;66.80;;;;;;5065899;28;20542;-75
2021/08/25 02:01:23;;;;;;;6.17;2.80;;;23.70;66.90;;;;;;5063386;28;20697;-76
2021/08/25 02:03:49;;;;;;;3.00;2.30;;;23.70;66.80;;;;;;5083422;28;20699;-76
2021/08/25 02:06:16;;;;;;;4.82;2.65;;;23.70;66.90;;;;;;5080059;28;20197;-76
2021/08/25 02:08:44;;;;;;;5.73;2.70;;;23.70;66.70;;;;;;5085384;28;20193;-76
2021/08/25 02:11:15;;;;;;;6.20;2.53;;;23.70;66.90;;;;;;5078277;28;20186;-76
2021/08/25 02:13:48;;;;;;;4.13;2.60;;;23.70;66.50;;;;;;5088102;28;20650;-76
2021/08/25 02:16:14;;;;;;;3.33;2.40;;;23.70;66.90;;;;;;5084263;28;20498;-76
2021/08/25 02:18:40;;;;;;;4.10;2.70;;;23.60;66.40;;;;;;5067353;28;20194;-76
2021/08/25 02:21:07;;;;;;;3.20;2.10;;;23.70;66.50;;;;;;5081907;28;20179;-76
2021/08/25 02:23:33;;;;;;;6.33;2.80;;;23.70;66.60;;;;;;5092759;27;20178;-76
2021/08/25 02:25:59;;;;;;;3.83;2.30;;;23.80;66.70;;;;;;5087810;28;20187;-73
2021/08/25 02:28:26;;;;;;;8.60;2.40;;;23.80;65.70;;;;;;5086599;28;20188;-75
2021/08/25 02:30:53;;;;;;;5.32;2.50;;;23.90;66.00;;;;;;5079912;28;20285;-76
2021/08/25 02:33:19;;;;;;;10.63;2.93;;;24.00;66.50;;;;;;5070555;28;20217;-76
2021/08/25 02:35:45;;;;;;;4.45;2.80;;;24.10;67.80;;;;;;5083603;28;20244;-75
2021/08/25 02:38:12;;;;;;;3.87;2.63;;;24.10;66.70;;;;;;5079860;28;20618;-75
2021/08/25 02:40:39;;;;;;;3.63;2.77;;;24.20;67.10;;;;;;5082890;28;20216;-76
2021/08/25 02:43:06;;;;;;;5.53;2.60;;;24.20;66.70;;;;;;5070424;28;20251;-75
2021/08/25 02:45:33;;;;;;;4.93;2.50;;;24.20;66.00;;;;;;5086101;28;20225;-76
2021/08/25 02:47:59;;;;;;;4.15;2.92;;;24.10;65.70;;;;;;5072565;28;20956;-76
2021/08/25 02:50:26;;;;;;;5.88;2.88;;;24.10;66.40;;;;;;5086184;28;20654;-76
2021/08/25 02:52:53;;;;;;;5.90;2.80;;;24.20;65.90;;;;;;5067447;28;20758;-76
2021/08/25 02:55:20;;;;;;;5.13;2.88;;;24.10;65.10;;;;;;5077057;28;20751;-75
2021/08/25 02:57:47;;;;;;;6.32;2.88;;;24.00;64.80;;;;;;5084971;28;20235;-76
2021/08/25 03:00:14;;;;;;;7.20;3.28;;;24.00;65.30;;;;;;5072171;28;20182;-75
2021/08/25 03:02:40;;;;;;;7.88;3.20;;;24.00;65.00;;;;;;5092282;28;20251;-75
2021/08/25 03:05:07;;;;;;;5.70;2.43;;;24.00;64.90;;;;;;5066735;28;20183;-76
2021/08/25 03:07:33;;;;;;;3.88;2.50;;;24.10;65.50;;;;;;5083251;28;20308;-76
2021/08/25 03:09:59;;;;;;;5.63;3.28;;;24.00;65.40;;;;;;5081443;28;20282;-76
2021/08/25 03:12:26;;;;;;;6.13;2.63;;;23.90;65.00;;;;;;5085122;28;20210;-75
2021/08/25 03:14:52;;;;;;;6.38;2.80;;;23.80;65.40;;;;;;5077144;28;20205;-76
2021/08/25 03:17:18;;;;;;;8.53;2.80;;;23.90;65.90;;;;;;5075965;28;20183;-76
2021/08/25 03:19:46;;;;;;;5.38;2.67;;;23.80;65.80;;;;;;5083388;28;20201;-76
2021/08/25 03:22:13;;;;;;;5.50;2.53;;;23.80;65.60;;;;;;5067069;28;20264;-76
2021/08/25 03:24:39;;;;;;;3.03;2.30;;;23.80;65.70;;;;;;5086678;28;20186;-76
2021/08/25 03:27:06;;;;;;;4.85;2.65;;;23.80;65.60;;;;;;5083879;28;20194;-76
2021/08/25 03:29:32;;;;;;;11.88;2.47;;;23.80;65.40;;;;;;5062214;28;20243;-76
2021/08/25 03:31:58;;;;;;;11.37;3.23;;;23.80;65.90;;;;;;5089900;28;20265;-76
2021/08/25 03:34:25;;;;;;;36.83;4.33;;;23.90;66.00;;;;;;5065856;28;20530;-76
2021/08/25 03:36:52;;;;;;;16.95;3.53;;;24.00;67.70;;;;;;5085217;28;20183;-76
2021/08/25 03:39:19;;;;;;;27.03;3.63;;;24.00;67.40;;;;;;5069917;28;20258;-76
2021/08/25 03:41:46;;;;;;;9.88;3.05;;;24.10;68.10;;;;;;5085068;28;20627;-76
2021/08/25 03:44:12;;;;;;;3.67;2.47;;;24.00;67.10;;;;;;5081668;28;20182;-76
2021/08/25 03:46:38;;;;;;;6.87;2.83;;;23.90;66.30;;;;;;5069628;28;20189;-76
2021/08/25 03:49:05;;;;;;;5.65;2.10;;;23.80;66.40;;;;;;5063708;28;20838;-77
2021/08/25 03:51:32;;;;;;;37.60;3.93;;;23.90;67.60;;;;;;5077240;28;20330;-77
2021/08/25 03:53:59;;;;;;;29.55;4.00;;;24.00;67.80;;;;;;5081502;28;20204;-78
2021/08/25 03:56:25;;;;;;;9.20;2.90;;;23.90;67.20;;;;;;5080052;28;20248;-77
2021/08/25 03:58:52;;;;;;;17.55;3.05;;;23.80;67.20;;;;;;5068091;28;20174;-76
2021/08/25 04:01:19;;;;;;;18.60;3.63;;;23.80;68.40;;;;;;5080140;28;20201;-76
2021/08/25 04:03:45;;;;;;;13.83;2.97;;;23.80;67.80;;;;;;5101999;28;20189;-77
2021/08/25 04:06:13;;;;;;;8.40;2.57;;;23.70;68.20;;;;;;5082712;28;20284;-77
2021/08/25 04:08:39;;;;;;;15.30;2.90;;;23.80;68.10;;;;;;5071540;28;20178;-77
2021/08/25 04:11:06;;;;;;;10.18;2.67;;;23.80;68.20;;;;;;5075452;28;20187;-77
2021/08/25 04:13:33;;;;;;;4.53;2.73;;;23.80;68.60;;;;;;5083642;28;21040;-77
2021/08/25 04:15:59;;;;;;;6.03;2.60;;;23.90;69.10;;;;;;5058839;28;20217;-77
2021/08/25 04:18:25;;;;;;;6.70;2.50;;;23.90;69.70;;;;;;5078582;28;20186;-77
2021/08/25 04:20:52;;;;;;;6.20;2.60;;;23.90;69.20;;;;;;5051828;28;20573;-77
2021/08/25 04:23:19;;;;;;;4.37;2.83;;;23.90;69.30;;;;;;5080572;28;20191;-77
2021/08/25 04:25:45;;;;;;;3.90;2.50;;;23.90;68.50;;;;;;5083414;28;20685;-75
2021/08/25 04:28:12;;;;;;;6.90;2.75;;;24.00;68.90;;;;;;5083949;28;20190;-74
2021/08/25 04:30:38;;;;;;;3.60;2.47;;;24.00;68.80;;;;;;5069672;28;20197;-75
2021/08/25 04:33:06;;;;;;;4.55;2.75;;;24.00;68.80;;;;;;5058244;28;20206;-75
2021/08/25 04:35:33;;;;;;;6.20;2.63;;;24.10;68.90;;;;;;5064632;28;20273;-74
2021/08/25 04:37:59;;;;;;;4.67;2.47;;;24.10;69.80;;;;;;5069676;28;20569;-75
2021/08/25 04:40:25;;;;;;;3.75;2.33;;;24.10;70.30;;;;;;5064537;28;20232;-74
2021/08/25 04:42:52;;;;;;;6.30;2.37;;;24.10;71.20;;;;;;5081902;28;20195;-75
2021/08/25 04:45:18;;;;;;;5.55;2.60;;;24.20;71.20;;;;;;5079682;28;20252;-74
2021/08/25 04:47:45;;;;;;;6.00;2.50;;;24.20;71.00;;;;;;5076970;28;20247;-75
2021/08/25 04:50:11;;;;;;;7.60;2.83;;;24.30;71.20;;;;;;5083391;28;20547;-74
2021/08/25 04:52:38;;;;;;;4.63;2.70;;;24.30;72.40;;;;;;5085261;28;20206;-76
2021/08/25 04:55:05;;;;;;;4.38;2.60;;;24.30;72.30;;;;;;5081218;28;20520;-76
2021/08/25 04:57:32;;;;;;;9.95;2.85;;;24.40;71.80;;;;;;5087152;28;20231;-77
2021/08/25 04:59:58;;;;;;;10.63;2.58;;;24.40;72.60;;;;;;5066253;28;20182;-76
2021/08/25 05:02:25;;;;;;;7.22;2.70;;;24.50;72.40;;;;;;5083484;28;20198;-76
2021/08/25 05:04:51;;;;;;;3.45;2.78;;;24.50;72.80;;;;;;5069569;28;20240;-76
2021/08/25 05:07:17;;;;;;;3.55;2.70;;;24.60;72.80;;;;;;5077948;28;20187;-76
2021/08/25 05:09:45;;;;;;;10.20;2.75;;;24.60;73.40;;;;;;5074664;28;20186;-76
2021/08/25 05:12:13;;;;;;;3.63;2.30;;;24.70;73.30;;;;;;5080400;28;20209;-73
2021/08/25 05:14:40;;;;;;;4.63;3.15;;;24.70;73.30;;;;;;5082936;28;20277;-73
2021/08/25 05:17:06;;;;;;;5.85;2.70;;;24.70;74.30;;;;;;5084974;28;20191;-73
2021/08/25 05:19:32;;;;;;;7.95;2.70;;;24.80;74.90;;;;;;5067293;28;20646;-73
2021/08/25 05:22:00;;;;;;;6.45;2.92;;;24.80;75.10;;;;;;5082214;28;20244;-75
2021/08/25 05:24:26;;;;;;;8.50;2.83;;;24.90;75.90;;;;;;5084992;28;20191;-73
2021/08/25 05:26:53;;;;;;;3.10;2.78;;;24.90;76.00;;;;;;5071845;28;20187;-74
2021/08/25 05:29:19;;;;;;;4.57;2.70;;;24.90;76.60;;;;;;5085843;28;20193;-73
2021/08/25 05:31:45;;;;;;;4.03;3.00;;;25.00;75.90;;;;;;5071640;28;21742;-75
2021/08/25 05:34:12;;;;;;;4.07;2.47;;;25.00;75.30;;;;;;5081859;28;20635;-73
2021/08/25 05:36:41;;;;;;;5.97;3.10;;;25.10;75.80;;;;;;5073242;28;20190;-73
2021/08/25 05:51:15;;;;;;;3.00;2.70;;;25.20;72.30;;;;;;5031650;28;20588;-72
2021/08/25 05:53:44;;;;;;;8.05;2.75;;;25.30;74.80;;;;;;5016964;28;20227;-72
2021/08/25 05:56:12;;;;;;;6.05;2.92;;;25.30;74.80;;;;;;5050583;28;20192;-72
2021/08/25 05:58:42;;;;;;;6.25;3.08;;;25.40;73.70;;;;;;5019598;28;20267;-72
2021/08/25 06:01:12;;;;;;;4.70;2.63;;;25.40;74.50;;;;;;5017467;28;20275;-73
2021/08/25 06:03:39;;;;;;;7.78;3.45;;;25.50;74.40;;;;;;5018127;28;20191;-72
2021/08/25 06:06:11;;;;;;;4.75;2.67;;;25.50;74.10;;;;;;5020164;28;20199;-73
2021/08/25 06:08:39;;;;;;;7.53;3.08;;;25.60;74.60;;;;;;5019548;28;20510;-73
2021/08/25 06:11:07;;;;;;;5.22;2.70;;;25.60;73.50;;;;;;5035601;28;20188;-73
2021/08/25 06:13:33;;;;;;;10.00;3.28;;;25.70;73.40;;;;;;5019655;28;20185;-73
2021/08/25 06:16:00;;;;;;;5.45;3.00;;;25.90;72.10;;;;;;5019064;28;20184;-73
2021/08/25 06:18:26;;;;;;;7.10;3.08;;;26.00;73.00;;;;;;5018314;28;20193;-73
2021/08/25 06:20:53;;;;;;;7.05;3.00;;;25.90;73.30;;;;;;5042364;28;20210;-72
2021/08/25 06:23:20;;;;;;;5.60;3.15;;;26.00;74.40;;;;;;5016325;28;20227;-72
2021/08/25 06:25:49;;;;;;;14.55;3.67;;;26.10;73.80;;;;;;5023076;28;20238;-73
2021/08/25 06:28:15;;;;;;;5.10;3.22;;;26.30;74.50;;;;;;5015856;28;20522;-73
2021/08/25 06:30:42;;;;;;;7.35;3.55;;;26.30;75.30;;;;;;5020291;28;20810;-73
2021/08/25 06:33:10;;;;;;;13.20;3.70;;;26.40;76.50;;;;;;5017781;28;20200;-73
2021/08/25 06:35:37;;;;;;;48.50;4.80;;;26.50;76.80;;;;;;5020401;28;20200;-73
2021/08/25 06:38:03;;;;;;;5.75;3.58;;;26.60;76.80;;;;;;5018389;28;20201;-73
2021/08/25 06:40:32;;;;;;;10.38;3.65;;;26.70;77.60;;;;;;5016332;28;20216;-72
2021/08/25 06:42:59;;;;;;;5.30;3.38;;;26.80;79.60;;;;;;5015492;28;20224;-73
2021/08/25 06:45:26;;;;;;;19.50;5.05;;;26.90;79.20;;;;;;4997365;28;20259;-72
2021/08/25 06:47:53;;;;;;;10.15;3.90;;;27.00;79.30;;;;;;5016605;28;20211;-71
2021/08/25 06:50:19;;;;;;;11.30;4.25;;;27.10;82.30;;;;;;5011743;28;20248;-72
2021/08/25 06:52:45;;;;;;;9.32;4.13;;;27.20;82.70;;;;;;4996857;28;20191;-71
2021/08/25 06:55:12;;;;;;;7.97;4.43;;;27.20;84.50;;;;;;5000148;28;20189;-71
2021/08/25 06:57:38;;;;;;;12.60;4.90;;;27.20;90.50;;;;;;5004714;28;20243;-72
2021/08/25 07:00:06;;;;;;;9.15;4.32;;;27.40;92.80;;;;;;4998801;28;20215;-72
2021/08/25 07:02:32;;;;;;;16.35;4.80;;;27.50;93.30;;;;;;4999442;28;20755;-72
2021/08/25 07:04:59;;;;;;;17.25;5.10;;;27.50;94.70;;;;;;5004153;28;20192;-73
2021/08/25 07:07:25;;;;;;;11.65;5.47;;;27.80;98.00;;;;;;5005102;28;20220;-71
2021/08/25 07:09:51;;;;;;;12.60;5.72;;;27.90;99.90;;;;;;4988341;28;20181;-74
2021/08/25 07:12:18;;;;;;;13.65;6.38;;;28.10;99.90;;;;;;4999898;28;20193;-72
2021/08/25 07:14:45;;;;;;;14.63;6.68;;;28.10;99.90;;;;;;5003098;28;20196;-73
2021/08/25 07:17:11;;;;;;;11.77;5.72;;;28.20;99.90;;;;;;4985810;28;20264;-72
2021/08/25 07:19:41;;;;;;;13.20;6.20;;;28.30;99.90;;;;;;5004806;28;20549;-72
2021/08/25 07:22:09;;;;;;;14.65;6.40;;;28.40;99.90;;;;;;5012570;28;20194;-71
2021/08/25 07:24:35;;;;;;;18.27;6.78;;;28.40;99.90;;;;;;4996087;28;20938;-72
2021/08/25 07:27:02;;;;;;;21.23;6.95;;;28.40;99.90;;;;;;5004426;28;20285;-73
2021/08/25 07:29:28;;;;;;;15.73;6.80;;;28.50;99.90;;;;;;4989149;28;20243;-72
2021/08/25 07:31:55;;;;;;;18.60;6.60;;;28.50;99.90;;;;;;5002250;28;20249;-72
2021/08/25 07:34:22;;;;;;;17.67;7.25;;;28.50;99.90;;;;;;5003608;28;20197;-72
2021/08/25 07:36:48;;;;;;;19.30;6.93;;;28.60;99.90;;;;;;5003900;28;20272;-72
2021/08/25 07:39:14;;;;;;;17.33;7.30;;;28.60;99.90;;;;;;4984603;28;20236;-72
2021/08/25 07:41:42;;;;;;;17.02;6.80;;;28.70;99.90;;;;;;5002319;28;20208;-72
2021/08/25 07:44:08;;;;;;;16.58;6.80;;;28.70;99.90;;;;;;5003186;28;20729;-73
2021/08/25 07:46:34;;;;;;;14.48;6.13;;;28.80;99.90;;;;;;5000712;28;20616;-71
2021/08/25 07:49:03;;;;;;;17.35;6.70;;;28.80;99.90;;;;;;5002901;28;20199;-72
2021/08/25 08:02:14;;;;;;;14.43;6.45;;;28.80;99.90;;;;;;5091598;27;21068;-73
2021/08/25 08:04:40;;;;;;;10.25;6.10;;;29.20;99.90;;;;;;5076772;28;20657;-73
2021/08/25 08:07:06;;;;;;;17.63;6.15;;;29.20;99.90;;;;;;5074292;28;20197;-73
2021/08/25 08:09:33;;;;;;;14.68;5.75;;;29.20;99.90;;;;;;5059941;28;20205;-75
2021/08/25 08:11:59;;;;;;;13.13;5.38;;;29.30;99.90;;;;;;5077815;28;20195;-75
2021/08/25 08:14:26;;;;;;;14.65;5.47;;;29.40;99.90;;;;;;5065522;28;20893;-76
2021/08/25 08:16:55;;;;;;;15.23;5.68;;;29.40;99.90;;;;;;5077703;28;20185;-72
2021/08/25 08:19:29;;;;;;;10.93;5.07;;;29.50;99.90;;;;;;5062703;28;20326;-73
2021/08/25 08:21:57;;;;;;;13.90;5.32;;;29.60;99.90;;;;;;5060350;28;20185;-73
2021/08/25 08:24:23;;;;;;;11.43;4.95;;;29.70;99.90;;;;;;5061557;28;20225;-73
2021/08/25 08:26:50;;;;;;;11.30;4.82;;;29.70;99.90;;;;;;5094300;28;20193;-72
2021/08/25 08:29:16;;;;;;;13.35;4.60;;;29.80;99.90;;;;;;5078631;28;20591;-73
2021/08/25 08:31:43;;;;;;;13.30;4.97;;;29.90;99.90;;;;;;5072604;28;20214;-74
2021/08/25 08:34:10;;;;;;;12.60;4.72;;;30.00;99.90;;;;;;5077734;28;20202;-75
2021/08/25 08:36:36;;;;;;;14.82;5.15;;;30.00;99.90;;;;;;5063995;28;20190;-73
2021/08/25 08:39:04;;;;;;;13.40;4.95;;;30.20;99.90;;;;;;5078565;28;20275;-73
2021/08/25 08:41:31;;;;;;;13.05;5.13;;;30.20;99.90;;;;;;5079179;28;20229;-73
2021/08/25 08:43:57;;;;;;;15.73;5.25;;;30.20;99.90;;;;;;5074954;28;20183;-70
2021/08/25 08:46:28;;;;;;;13.20;4.97;;;30.30;99.90;;;;;;5077948;28;20216;-73
2021/08/25 08:49:05;;;;;;;13.63;5.00;;;30.30;99.90;;;;;;5073284;28;20194;-72
2021/08/25 08:51:32;;;;;;;10.27;4.72;;;30.50;99.90;;;;;;5089966;28;20235;-74
2021/08/25 08:54:00;;;;;;;11.38;5.13;;;30.70;99.90;;;;;;5074337;28;20200;-72
2021/08/25 08:56:26;;;;;;;17.73;5.78;;;30.70;99.90;;;;;;5080654;28;20191;-74
2021/08/25 08:58:54;;;;;;;10.00;5.45;;;30.80;99.90;;;;;;5077222;28;20182;-73
2021/08/25 09:01:22;;;;;;;21.55;5.75;;;30.90;99.90;;;;;;5067487;28;20577;-71
2021/08/25 09:03:51;;;;;;;17.77;5.75;;;30.90;99.90;;;;;;5053448;28;20312;-72
2021/08/25 09:06:18;;;;;;;12.82;5.53;;;31.00;99.90;;;;;;5047211;28;20179;-72
2021/08/25 09:08:56;;;;;;;9.52;5.05;;;31.10;99.90;;;;;;5047919;28;20778;-71
2021/08/25 09:11:23;;;;;;;13.70;5.95;;;31.10;99.90;;;;;;5062294;28;20214;-72
2021/08/25 09:13:53;;;;;;;12.30;5.32;;;31.10;99.90;;;;;;5050621;28;20290;-72
2021/08/25 09:16:34;;;;;;;18.38;6.07;;;31.10;99.90;;;;;;5046054;28;20175;-72
2021/08/25 09:19:16;;;;;;;11.13;5.88;;;31.30;99.90;;;;;;5051031;28;20409;-72
2021/08/25 09:21:54;;;;;;;10.30;5.97;;;31.20;99.90;;;;;;5059740;28;20230;-72
2021/08/25 09:24:39;;;;;;;17.25;5.68;;;31.30;99.90;;;;;;5046941;28;21040;-70
2021/08/25 09:27:18;;;;;;;12.50;6.07;;;31.40;99.90;;;;;;5065762;28;20183;-71
2021/08/25 09:29:57;;;;;;;13.95;5.88;;;31.50;99.90;;;;;;5061697;28;20218;-70
2021/08/25 09:32:28;;;;;;;11.13;6.13;;;31.40;99.90;;;;;;5039650;28;20187;-71
2021/08/25 09:35:02;;;;;;;15.82;5.35;;;31.30;99.90;;;;;;5038378;28;20770;-70
2021/08/25 09:37:33;;;;;;;14.93;6.75;;;31.30;99.90;;;;;;5043109;28;20286;-71
2021/08/25 09:40:16;;;;;;;16.23;6.40;;;31.40;99.90;;;;;;5063329;28;20195;-71
2021/08/25 09:42:47;;;;;;;13.90;6.05;;;31.40;99.90;;;;;;5062132;28;20208;-71
2021/08/25 09:45:17;;;;;;;13.95;6.35;;;31.60;99.90;;;;;;5063418;28;20191;-72
2021/08/25 09:47:52;;;;;;;16.35;6.50;;;31.60;99.90;;;;;;5060418;28;20211;-71
2021/08/25 09:50:27;;;;;;;16.52;6.47;;;31.70;99.90;;;;;;5063645;28;20285;-73
2021/08/25 09:52:56;;;;;;;14.43;6.18;;;31.90;99.90;;;;;;5056646;28;20221;-71
2021/08/25 09:55:31;;;;;;;22.08;7.00;;;32.30;99.90;;;;;;5061490;28;20202;-72
2021/08/25 09:57:59;;;;;;;13.32;6.25;;;32.10;99.90;;;;;;5045844;28;20198;-73
2021/08/25 10:00:26;;;;;;;13.15;6.07;;;31.90;99.90;;;;;;5058969;28;20194;-73
2021/08/25 10:02:59;;;;;;;14.65;6.97;;;31.90;99.90;;;;;;5059455;28;20778;-72
2021/08/25 10:05:31;;;;;;;15.98;6.20;;;32.00;99.90;;;;;;5051013;28;20382;-73
2021/08/25 10:08:00;;;;;;;15.93;6.78;;;32.00;99.90;;;;;;5053537;28;20191;-72
2021/08/25 10:10:29;;;;;;;11.93;6.07;;;32.20;99.90;;;;;;5044565;28;20338;-72
2021/08/25 10:12:58;;;;;;;12.80;6.20;;;32.40;99.90;;;;;;5044288;28;20257;-73
2021/08/25 10:15:38;;;;;;;16.05;6.70;;;33.90;99.90;;;;;;5050198;28;20237;-72
2021/08/25 10:18:24;;;;;;;10.18;5.38;;;35.80;99.90;;;;;;5044974;28;20235;-73
2021/08/25 10:20:58;;;;;;;16.00;6.63;;;37.40;99.90;;;;;;5050060;28;20187;-71
2021/08/25 10:23:57;;;;;;;12.27;6.20;;;37.00;99.90;;;;;;5060862;28;20198;-72
2021/08/25 10:26:29;;;;;;;16.27;6.15;;;36.10;99.90;;;;;;5047549;28;20542;-72
2021/08/25 10:29:09;;;;;;;16.75;6.57;;;34.90;99.90;;;;;;5046820;28;20194;-72
2021/08/25 10:31:56;;;;;;;11.45;6.13;;;34.30;99.90;;;;;;5045381;28;20210;-72
2021/08/25 10:34:31;;;;;;;17.17;6.40;;;34.20;99.90;;;;;;5045616;28;20773;-72
2021/08/25 10:37:19;;;;;;;22.13;6.82;;;34.30;99.90;;;;;;5056137;28;20248;-75
2021/08/25 10:39:56;;;;;;;18.17;6.25;;;35.80;99.90;;;;;;5056087;28;20288;-72
2021/08/25 10:42:45;;;;;;;22.90;6.25;;;38.10;99.90;;;;;;5043547;28;20187;-73
2021/08/25 10:45:15;;;;;;;21.55;6.47;;;38.90;99.50;;;;;;5060255;28;20183;-73
2021/08/25 10:48:02;;;;;;;15.05;6.45;;;36.20;99.90;;;;;;5041257;28;20187;-73
2021/08/25 10:51:29;;;;;;;16.13;6.68;;;34.70;99.90;;;;;;5044706;28;20207;-74
2021/08/25 10:53:57;;;;;;;13.80;6.20;;;34.00;99.90;;;;;;5038912;28;20230;-74
2021/08/25 10:56:42;;;;;;;22.05;6.80;;;33.60;99.90;;;;;;5025296;28;20184;-73
2021/08/25 10:59:18;;;;;;;20.13;6.65;;;33.50;99.90;;;;;;5050911;28;20191;-72
2021/08/25 11:01:49;;;;;;;14.05;6.75;;;33.40;99.90;;;;;;5055885;28;20234;-72
2021/08/25 11:04:24;;;;;;;16.45;6.72;;;33.20;99.90;;;;;;5062866;28;20192;-74
2021/08/25 11:07:01;;;;;;;18.27;6.88;;;33.30;99.90;;;;;;5057787;28;20802;-73
2021/08/25 11:09:42;;;;;;;20.77;6.30;;;33.30;99.90;;;;;;5036479;28;20190;-74
2021/08/25 11:12:21;;;;;;;15.90;6.13;;;33.10;99.90;;;;;;5041578;28;20275;-73
2021/08/25 11:14:48;;;;;;;16.77;6.55;;;33.10;99.90;;;;;;5049332;28;20234;-74
2021/08/25 11:17:29;;;;;;;22.05;6.75;;;33.00;99.90;;;;;;5059742;28;20183;-72
2021/08/25 11:20:07;;;;;;;14.68;6.40;;;33.10;99.90;;;;;;5058675;28;20183;-74
2021/08/25 11:22:44;;;;;;;12.80;6.07;;;33.10;99.90;;;;;;5040278;28;20191;-74
2021/08/25 11:25:16;;;;;;;15.95;6.47;;;33.00;99.90;;;;;;5059227;28;20320;-74
2021/08/25 11:27:51;;;;;;;15.93;6.30;;;33.10;99.90;;;;;;5057557;28;20186;-73
2021/08/25 11:30:20;;;;;;;18.27;6.25;;;33.10;99.90;;;;;;5056300;28;20213;-72
2021/08/25 11:33:09;;;;;;;17.83;6.35;;;33.10;99.90;;;;;;5057460;28;20236;-73
2021/08/25 11:35:45;;;;;;;14.35;6.45;;;33.10;99.90;;;;;;5040487;28;20187;-74
2021/08/25 11:38:18;;;;;;;15.35;6.35;;;33.10;99.90;;;;;;5058903;28;20190;-76
2021/08/25 11:40:49;;;;;;;14.60;6.30;;;33.10;99.90;;;;;;5047957;28;20668;-73
2021/08/25 11:43:18;;;;;;;14.18;6.15;;;33.20;99.90;;;;;;5062143;28;20179;-73
2021/08/25 11:45:51;;;;;;;11.70;6.00;;;33.10;99.90;;;;;;5054757;28;20380;-73
2021/08/25 11:48:18;;;;;;;20.52;6.68;;;33.10;99.90;;;;;;5054592;28;20265;-73
2021/08/25 11:50:49;;;;;;;14.02;5.60;;;33.10;99.90;;;;;;5042012;28;20843;-73
2021/08/25 11:53:22;;;;;;;17.17;6.32;;;32.90;99.90;;;;;;5037034;28;20894;-73
2021/08/25 11:55:52;;;;;;;20.25;6.40;;;32.90;99.90;;;;;;5059692;28;20183;-72
2021/08/25 11:58:38;;;;;;;12.35;6.22;;;33.00;99.90;;;;;;5057913;28;20187;-73
2021/08/25 12:01:22;;;;;;;14.75;6.63;;;32.90;99.90;;;;;;5057552;28;20864;-72
2021/08/25 12:03:49;;;;;;;12.10;6.45;;;32.90;99.90;;;;;;5041597;28;20187;-73
2021/08/25 12:06:21;;;;;;;12.30;6.47;;;32.90;99.90;;;;;;5043137;28;20228;-74
2021/08/25 12:08:52;;;;;;;13.60;6.47;;;32.90;99.90;;;;;;5059760;28;20190;-76
2021/08/25 12:11:21;;;;;;;15.85;6.47;;;33.00;99.90;;;;;;5054608;28;20305;-74
2021/08/25 12:13:57;;;;;;;11.35;6.22;;;33.00;99.90;;;;;;5058918;28;20191;-74
2021/08/25 12:16:31;;;;;;;16.63;5.90;;;33.10;99.90;;;;;;5054164;28;20542;-73
2021/08/25 12:19:01;;;;;;;18.52;6.32;;;32.90;99.90;;;;;;5060015;28;20295;-73
2021/08/25 12:21:32;;;;;;;11.70;6.25;;;32.70;99.90;;;;;;5041149;28;20766;-72
2021/08/25 12:24:11;;;;;;;14.38;5.78;;;32.90;99.90;;;;;;5043614;28;20183;-72
2021/08/25 12:26:52;;;;;;;12.95;6.05;;;32.90;99.90;;;;;;5057223;28;20178;-72
2021/08/25 12:29:31;;;;;;;12.18;5.35;;;32.90;99.90;;;;;;5060355;28;20229;-72
2021/08/25 12:31:59;;;;;;;12.07;5.50;;;32.90;99.90;;;;;;5054498;28;20944;-75
2021/08/25 12:34:26;;;;;;;15.40;5.55;;;32.40;99.90;;;;;;5043973;28;20218;-74
2021/08/25 12:36:56;;;;;;;16.40;5.63;;;32.80;99.90;;;;;;5059417;28;20793;-72
2021/08/25 12:39:28;;;;;;;15.60;5.50;;;33.00;99.90;;;;;;5062840;28;20896;-73
2021/08/25 12:41:56;;;;;;;12.63;6.25;;;32.90;99.90;;;;;;5067509;28;20867;-72
2021/08/25 12:44:24;;;;;;;11.50;5.70;;;32.90;99.90;;;;;;5064496;28;20218;-73
2021/08/25 12:46:56;;;;;;;9.52;5.50;;;33.00;99.90;;;;;;5064271;28;20187;-72
2021/08/25 12:49:31;;;;;;;12.40;5.57;;;33.10;99.90;;;;;;5043906;28;20180;-73
2021/08/25 12:52:00;;;;;;;14.25;5.50;;;32.90;99.90;;;;;;5062256;28;20214;-72
2021/08/25 12:54:28;;;;;;;11.63;5.40;;;32.80;99.90;;;;;;5076398;28;20775;-74
2021/08/25 12:56:55;;;;;;;11.43;4.50;;;32.80;99.90;;;;;;5062584;28;20253;-71
2021/08/25 12:59:22;;;;;;;7.68;4.47;;;33.10;99.90;;;;;;5058679;28;20195;-73
2021/08/25 13:01:49;;;;;;;12.00;4.93;;;33.00;99.90;;;;;;5061610;28;20198;-73
2021/08/25 13:04:15;;;;;;;14.90;5.47;;;32.60;99.90;;;;;;5058894;28;20650;-73
2021/08/25 13:06:42;;;;;;;13.60;5.05;;;32.70;99.90;;;;;;5045659;28;20268;-71
2021/08/25 13:09:08;;;;;;;11.93;6.05;;;32.90;99.90;;;;;;5059946;28;20900;-72
2021/08/25 13:11:35;;;;;;;16.55;5.25;;;32.70;99.90;;;;;;5059790;28;20219;-72
2021/08/25 13:14:01;;;;;;;11.93;5.18;;;33.00;99.90;;;;;;5058067;28;20769;-71
2021/08/25 13:16:28;;;;;;;12.98;5.50;;;33.00;99.90;;;;;;5062503;28;20179;-73